createdAt,value
2019-05-23T00:00:53.808Z,99.90
2019-05-23T00:03:27.282Z,99.90
2019-05-23T00:06:03.344Z,99.90
2019-05-23T00:08:32.202Z,99.90
2019-05-23T00:11:04.191Z,99.90
2019-05-23T00:13:35.809Z,99.90
2019-05-23T00:16:05.046Z,99.90
2019-05-23T00:18:35.699Z,99.90
2019-05-23T00:21:05.199Z,99.90
2019-05-23T00:23:34.780Z,99.90
2019-05-23T00:26:03.731Z,99.90
2019-05-23T00:28:33.038Z,99.90
2019-05-23T00:31:19.335Z,99.90
2019-05-23T00:33:49.383Z,99.90
2019-05-23T00:36:18.163Z,99.90
2019-05-23T00:38:47.325Z,99.90
2019-05-23T00:41:15.890Z,99.90
2019-05-23T00:43:44.821Z,99.90
2019-05-23T00:46:14.977Z,99.90
2019-05-23T00:48:44.567Z,99.90
2019-05-23T00:51:13.351Z,99.90
2019-05-23T00:53:42.204Z,99.90
2019-05-23T00:56:10.736Z,99.90
2019-05-23T00:58:39.211Z,99.90
2019-05-23T01:01:08.857Z,99.90
2019-05-23T01:03:38.871Z,99.90
2019-05-23T01:06:07.611Z,99.90
2019-05-23T01:08:36.959Z,99.90
2019-05-23T01:11:06.635Z,99.90
2019-05-23T01:13:35.679Z,99.90
2019-05-23T01:16:05.138Z,99.90
2019-05-23T01:18:34.053Z,99.90
2019-05-23T01:21:13.138Z,99.90
2019-05-23T01:23:43.254Z,99.90
2019-05-23T01:26:12.311Z,99.90
2019-05-23T01:28:40.837Z,99.90
2019-05-23T01:31:16.620Z,99.90
2019-05-23T01:33:47.083Z,99.90
2019-05-23T01:36:16.397Z,99.90
2019-05-23T01:38:45.171Z,99.90
2019-05-23T01:41:14.614Z,99.90
2019-05-23T01:43:43.956Z,99.90
2019-05-23T01:46:12.925Z,99.90
2019-05-23T01:48:42.626Z,99.90
2019-05-23T01:51:11.321Z,99.90
2019-05-23T01:53:40.231Z,99.90
2019-05-23T01:56:09.487Z,99.90
2019-05-23T01:58:38.673Z,99.90
2019-05-23T02:01:07.559Z,99.90
2019-05-23T02:03:36.031Z,99.90
2019-05-23T02:06:04.990Z,99.90
2019-05-23T02:08:34.327Z,99.90
2019-05-23T02:11:02.802Z,99.90
2019-05-23T02:13:31.551Z,99.90
2019-05-23T02:16:00.723Z,99.90
2019-05-23T02:18:29.303Z,99.90
2019-05-23T02:20:58.381Z,99.90
2019-05-23T02:23:28.238Z,99.90
2019-05-23T02:25:57.751Z,99.90
2019-05-23T02:28:26.999Z,99.90
2019-05-23T02:30:55.882Z,99.90
2019-05-23T02:33:25.329Z,99.90
2019-05-23T02:35:53.725Z,99.90
2019-05-23T02:38:23.764Z,99.90
2019-05-23T02:40:56.943Z,99.90
2019-05-23T02:43:26.356Z,99.90
2019-05-23T02:45:57.231Z,99.90
2019-05-23T02:48:30.354Z,99.90
2019-05-23T02:51:08.211Z,99.90
2019-05-23T02:53:38.763Z,99.90
2019-05-23T02:56:11.623Z,99.90
2019-05-23T02:59:00.603Z,99.90
2019-05-23T03:01:36.947Z,99.90
2019-05-23T03:04:17.778Z,99.90
2019-05-23T03:06:46.195Z,99.90
2019-05-23T03:09:16.577Z,99.90
2019-05-23T03:11:47.056Z,99.90
2019-05-23T03:14:18.983Z,99.90
2019-05-23T03:16:52.100Z,99.90
2019-05-23T03:19:27.148Z,99.90
2019-05-23T03:21:58.431Z,99.90
2019-05-23T03:24:28.778Z,99.90
2019-05-23T03:27:03.718Z,99.90
2019-05-23T03:29:34.369Z,99.90
2019-05-23T03:32:04.897Z,99.90
2019-05-23T03:34:37.995Z,99.90
2019-05-23T03:37:06.905Z,99.90
2019-05-23T03:39:35.651Z,99.90
2019-05-23T03:42:05.151Z,99.90
2019-05-23T03:44:34.050Z,99.90
2019-05-23T03:47:04.108Z,99.90
2019-05-23T03:49:34.212Z,99.90
2019-05-23T03:52:02.687Z,99.90
2019-05-23T03:54:32.836Z,99.90
2019-05-23T03:57:01.616Z,99.90
2019-05-23T03:59:31.418Z,99.90
2019-05-23T04:02:01.556Z,99.90
2019-05-23T04:04:32.089Z,99.90
2019-05-23T04:07:00.863Z,99.90
2019-05-23T04:09:30.008Z,99.90
2019-05-23T04:11:58.583Z,99.90
2019-05-23T04:14:27.656Z,99.90
2019-05-23T04:16:56.737Z,99.90
2019-05-23T04:19:25.399Z,99.90
2019-05-23T04:21:54.552Z,99.90
2019-05-23T04:24:23.324Z,99.90
2019-05-23T04:26:51.739Z,99.90
2019-05-23T04:29:20.311Z,99.90
2019-05-23T04:32:06.224Z,99.90
2019-05-23T04:34:19.337Z,99.90
2019-05-23T04:36:48.203Z,99.90
2019-05-23T04:39:16.612Z,99.90
2019-05-23T04:41:45.491Z,99.90
2019-05-23T04:44:15.448Z,99.90
2019-05-23T04:46:43.903Z,99.90
2019-05-23T04:49:12.685Z,99.90
2019-05-23T04:51:41.355Z,99.90
2019-05-23T04:54:11.032Z,99.90
2019-05-23T04:56:39.627Z,99.90
2019-05-23T04:59:08.124Z,99.90
2019-05-23T05:01:38.611Z,99.90
2019-05-23T05:04:07.739Z,99.90
2019-05-23T05:06:36.233Z,99.90
2019-05-23T05:09:08.039Z,99.90
2019-05-23T05:11:36.453Z,99.90
2019-05-23T05:14:05.631Z,99.90
2019-05-23T05:16:34.038Z,99.90
2019-05-23T05:19:02.533Z,99.90
2019-05-23T05:21:31.295Z,99.90
2019-05-23T05:23:59.843Z,99.90
2019-05-23T05:26:28.326Z,99.90
2019-05-23T05:28:56.817Z,99.90
2019-05-23T05:31:25.228Z,99.90
2019-05-23T05:33:53.679Z,99.90
2019-05-23T05:36:22.166Z,99.90
2019-05-23T05:38:50.943Z,99.90
2019-05-23T05:41:20.609Z,99.90
2019-05-23T05:43:49.561Z,99.90
2019-05-23T05:46:18.843Z,99.90
2019-05-23T05:48:47.700Z,99.90
2019-05-23T05:51:16.381Z,99.90
2019-05-23T05:53:45.065Z,99.90
2019-05-23T05:56:13.555Z,99.90
2019-05-23T05:58:42.302Z,99.90
2019-05-23T06:01:12.569Z,99.90
2019-05-23T06:03:41.323Z,99.90
2019-05-23T06:06:17.720Z,99.90
2019-05-23T06:08:53.774Z,99.90
2019-05-23T06:13:50.287Z,99.90
2019-05-23T06:16:18.790Z,99.90
2019-05-23T06:18:47.634Z,99.90
2019-05-23T06:21:18.464Z,99.90
2019-05-23T06:23:47.655Z,99.90
2019-05-23T06:26:16.095Z,99.90
2019-05-23T06:28:45.491Z,99.90
2019-05-23T06:31:15.309Z,99.90
2019-05-23T06:33:44.332Z,99.90
2019-05-23T06:36:13.174Z,99.90
2019-05-23T06:38:42.614Z,99.90
2019-05-23T06:41:11.920Z,99.90
2019-05-23T06:43:40.770Z,99.90
2019-05-23T06:46:09.358Z,99.90
2019-05-23T06:48:37.939Z,99.90
2019-05-23T06:51:06.352Z,99.90
2019-05-23T06:53:34.781Z,99.90
2019-05-23T06:56:03.181Z,99.90
2019-05-23T06:58:31.958Z,99.90
2019-05-23T07:01:00.376Z,99.90
2019-05-23T07:03:41.489Z,99.90
2019-05-23T07:05:59.264Z,99.90
2019-05-23T07:08:30.537Z,99.90
2019-05-23T07:13:29.606Z,99.90
2019-05-23T07:15:58.264Z,99.90
2019-05-23T07:18:27.386Z,99.90
2019-05-23T07:20:56.158Z,99.90
2019-05-23T07:23:24.647Z,99.90
2019-05-23T07:25:53.063Z,99.90
2019-05-23T07:28:21.539Z,99.90
2019-05-23T07:30:50.259Z,99.90
2019-05-23T07:33:18.760Z,99.90
2019-05-23T07:35:47.430Z,99.90
2019-05-23T07:38:16.158Z,99.90
2019-05-23T07:43:13.955Z,99.90
2019-05-23T07:48:16.133Z,67.70
2019-05-23T07:50:45.272Z,63.90
2019-05-23T07:53:15.656Z,57.60
2019-05-23T07:55:51.808Z,56.90
2019-05-23T08:00:56.135Z,50.50
2019-05-23T08:03:28.231Z,50.10
2019-05-23T08:05:57.293Z,49.00
2019-05-23T08:08:25.876Z,47.40
2019-05-23T08:10:54.295Z,48.10
2019-05-23T08:13:22.927Z,46.30
2019-05-23T08:15:52.377Z,45.30
2019-05-23T08:18:21.138Z,47.30
2019-05-23T08:20:49.650Z,44.00
2019-05-23T08:23:18.243Z,41.50
2019-05-23T08:25:47.317Z,45.00
2019-05-23T08:28:16.159Z,43.80
2019-05-23T08:30:44.829Z,44.30
2019-05-23T08:33:15.641Z,40.50
2019-05-23T08:35:45.391Z,40.00
2019-05-23T08:38:14.531Z,41.20
2019-05-23T08:40:43.669Z,39.00
2019-05-23T08:43:12.544Z,37.30
2019-05-23T08:45:41.427Z,37.50
2019-05-23T09:03:07.619Z,38.50
2019-05-23T09:05:38.526Z,38.10
2019-05-23T09:08:09.076Z,39.00
2019-05-23T09:10:39.052Z,38.80
2019-05-23T09:13:08.515Z,39.20
2019-05-23T09:15:37.219Z,37.00
2019-05-23T09:18:05.927Z,39.60
2019-05-23T09:20:34.818Z,35.10
2019-05-23T09:23:03.524Z,37.10
2019-05-23T09:25:31.999Z,37.90
2019-05-23T09:28:00.675Z,35.20
2019-05-23T09:30:29.721Z,33.60
2019-05-23T09:32:58.640Z,35.10
2019-05-23T09:37:55.327Z,33.40
2019-05-23T09:40:23.747Z,35.90
2019-05-23T09:42:52.211Z,36.30
2019-05-23T09:45:20.735Z,35.10
2019-05-23T09:50:20.698Z,32.60
2019-05-23T09:52:49.099Z,33.60
2019-05-23T09:55:18.427Z,34.80
2019-05-23T09:57:46.823Z,33.80
2019-05-23T10:00:17.916Z,35.40
2019-05-23T10:02:46.337Z,35.00
2019-05-23T10:05:15.090Z,37.60
2019-05-23T10:07:43.514Z,39.10
2019-05-23T10:10:12.947Z,35.10
2019-05-23T10:12:41.635Z,33.70
2019-05-23T10:15:12.803Z,33.40
2019-05-23T10:17:41.322Z,34.60
2019-05-23T10:20:10.175Z,34.10
2019-05-23T10:22:38.579Z,38.80
2019-05-23T10:25:07.538Z,39.30
2019-05-23T10:27:36.027Z,40.60
2019-05-23T10:30:08.881Z,38.40
2019-05-23T10:32:37.356Z,37.10
2019-05-23T10:35:07.997Z,35.80
2019-05-23T10:37:36.399Z,33.80
2019-05-23T10:40:05.649Z,32.70
2019-05-23T10:42:34.227Z,33.90
2019-05-23T10:45:03.405Z,35.00
2019-05-23T10:47:32.215Z,37.90
2019-05-23T10:50:06.822Z,39.40
2019-05-23T11:07:23.035Z,42.60
2019-05-23T11:09:51.506Z,42.50
2019-05-23T11:12:20.195Z,41.60
2019-05-23T11:14:48.667Z,40.80
2019-05-23T11:17:17.740Z,40.70
2019-05-23T11:19:46.671Z,41.20
2019-05-23T11:22:15.525Z,42.20
2019-05-23T11:24:43.984Z,44.60
2019-05-23T11:27:12.477Z,45.10
2019-05-23T11:29:41.045Z,43.20
2019-05-23T11:32:10.293Z,43.50
2019-05-23T11:34:38.737Z,42.60
2019-05-23T11:37:07.224Z,41.00
2019-05-23T11:39:42.138Z,41.90
2019-05-23T11:42:07.513Z,43.90
2019-05-23T11:44:35.908Z,44.90
2019-05-23T11:47:05.046Z,43.90
2019-05-23T11:49:34.570Z,45.50
2019-05-23T11:52:03.217Z,45.40
2019-05-23T11:54:31.990Z,45.70
2019-05-23T11:57:00.483Z,46.10
2019-05-23T11:59:29.304Z,46.80
2019-05-23T12:02:00.121Z,48.10
2019-05-23T12:04:28.599Z,49.70
2019-05-23T12:06:58.659Z,49.90
2019-05-23T12:09:27.626Z,49.80
2019-05-23T12:11:56.129Z,52.00
2019-05-23T12:14:24.767Z,46.20
2019-05-23T12:16:53.356Z,45.20
2019-05-23T12:19:21.839Z,44.00
2019-05-23T12:21:50.406Z,44.90
2019-05-23T12:24:19.148Z,47.00
2019-05-23T12:26:47.602Z,47.20
2019-05-23T12:29:16.272Z,47.20
2019-05-23T12:31:48.865Z,47.70
2019-05-23T12:34:14.878Z,49.50
2019-05-23T12:36:43.365Z,48.60
2019-05-23T12:39:11.875Z,47.30
2019-05-23T12:41:41.954Z,47.80
2019-05-23T12:44:10.768Z,47.70
2019-05-23T12:46:39.277Z,47.00
2019-05-23T12:49:12.507Z,45.70
2019-05-23T12:51:42.615Z,45.60
2019-05-23T12:54:11.127Z,45.70
2019-05-23T12:56:40.455Z,45.80
2019-05-23T12:59:09.547Z,49.10
2019-05-23T13:01:39.767Z,49.50
2019-05-23T13:04:10.342Z,49.40
2019-05-23T13:06:39.241Z,49.50
2019-05-23T13:09:09.366Z,47.90
2019-05-23T13:11:38.513Z,47.30
2019-05-23T13:14:08.458Z,47.90
2019-05-23T13:16:36.951Z,47.30
2019-05-23T13:19:05.853Z,49.70
2019-05-23T13:21:34.530Z,49.90
2019-05-23T13:24:03.012Z,48.20
2019-05-23T13:26:32.104Z,48.00
2019-05-23T13:29:00.523Z,48.60
2019-05-23T13:31:29.200Z,49.60
2019-05-23T13:33:57.891Z,52.80
2019-05-23T13:36:26.379Z,48.90
2019-05-23T13:38:54.964Z,51.00
2019-05-23T13:41:23.483Z,50.80
2019-05-23T13:43:52.257Z,50.70
2019-05-23T13:46:20.679Z,49.20
2019-05-23T13:48:49.088Z,49.40
2019-05-23T13:51:17.487Z,49.40
2019-05-23T13:53:45.976Z,49.10
2019-05-23T13:56:14.439Z,49.00
2019-05-23T13:58:43.459Z,49.40
2019-05-23T14:01:12.320Z,49.70
2019-05-23T14:03:40.812Z,48.10
2019-05-23T14:06:09.844Z,48.90
2019-05-23T14:08:38.619Z,50.10
2019-05-23T14:11:07.028Z,51.10
2019-05-23T14:13:35.618Z,51.30
2019-05-23T14:16:05.627Z,51.20
2019-05-23T14:18:35.487Z,51.00
2019-05-23T14:21:04.545Z,49.90
2019-05-23T14:23:34.026Z,50.10
2019-05-23T14:26:02.679Z,50.70
2019-05-23T14:28:31.536Z,52.70
2019-05-23T14:31:07.683Z,53.30
2019-05-23T14:33:43.846Z,53.70
2019-05-23T14:36:32.142Z,52.30
2019-05-23T14:39:02.023Z,51.80
2019-05-23T14:41:44.752Z,51.30
2019-05-23T14:44:02.364Z,52.30
2019-05-23T14:46:32.408Z,52.00
2019-05-23T14:49:11.619Z,51.50
2019-05-23T14:51:58.435Z,52.20
2019-05-23T14:54:35.111Z,52.10
2019-05-23T14:57:05.927Z,53.10
2019-05-23T14:59:34.837Z,52.50
2019-05-23T15:02:05.315Z,55.10
2019-05-23T15:04:33.799Z,54.40
2019-05-23T15:07:02.276Z,54.10
2019-05-23T15:09:30.688Z,52.80
2019-05-23T15:11:59.679Z,53.60
2019-05-23T15:14:28.262Z,53.10
2019-05-23T15:16:56.655Z,53.40
2019-05-23T15:19:39.135Z,54.90
2019-05-23T15:21:55.306Z,54.90
2019-05-23T15:24:24.342Z,53.50
2019-05-23T15:26:52.815Z,53.70
2019-05-23T15:29:21.217Z,53.50
2019-05-23T15:32:01.673Z,53.70
2019-05-23T15:34:19.968Z,52.90
2019-05-23T15:36:48.377Z,53.20
2019-05-23T15:39:18.285Z,53.80
2019-05-23T15:41:46.966Z,53.90
2019-05-23T15:44:25.147Z,53.60
2019-05-23T15:46:45.677Z,54.10
2019-05-23T15:49:14.802Z,55.80
2019-05-23T15:51:44.842Z,54.40
2019-05-23T15:54:14.963Z,54.80
2019-05-23T15:56:45.007Z,56.10
2019-05-23T15:59:27.483Z,55.20
2019-05-23T16:01:57.527Z,54.70
2019-05-23T16:04:26.219Z,54.20
2019-05-23T16:06:55.490Z,54.20
2019-05-23T16:09:29.939Z,55.80
2019-05-23T16:11:55.108Z,55.00
2019-05-23T16:14:23.581Z,55.50
2019-05-23T16:16:56.167Z,57.40
2019-05-23T16:19:23.161Z,56.40
2019-05-23T16:21:51.564Z,56.80
2019-05-23T16:24:20.041Z,57.60
2019-05-23T16:26:48.462Z,55.70
2019-05-23T16:29:17.000Z,56.50
2019-05-23T16:31:45.567Z,57.40
2019-05-23T16:34:14.336Z,58.60
2019-05-23T16:36:42.915Z,58.00
2019-05-23T16:39:11.754Z,59.20
2019-05-23T16:41:40.160Z,60.20
2019-05-23T16:44:08.641Z,59.80
2019-05-23T16:46:37.068Z,57.10
2019-05-23T16:49:05.924Z,56.10
2019-05-23T16:51:34.329Z,56.60
2019-05-23T16:54:02.833Z,56.80
2019-05-23T16:56:45.079Z,56.20
2019-05-23T16:59:15.219Z,55.90
2019-05-23T17:01:57.895Z,55.00
2019-05-23T17:04:31.971Z,55.10
2019-05-23T17:07:07.947Z,55.30
2019-05-23T17:12:26.723Z,53.90
2019-05-23T17:15:02.719Z,54.80
2019-05-23T17:17:49.516Z,54.90
2019-05-23T17:20:19.841Z,54.30
2019-05-23T17:23:00.370Z,53.60
2019-05-23T17:25:36.241Z,53.90
2019-05-23T17:28:12.775Z,55.60
2019-05-23T17:30:45.767Z,55.30
2019-05-23T17:33:14.774Z,55.40
2019-05-23T17:35:43.235Z,56.00
2019-05-23T17:38:11.964Z,56.80
2019-05-23T17:40:40.438Z,56.90
2019-05-23T17:43:09.107Z,57.70
2019-05-23T17:45:37.731Z,56.30
2019-05-23T17:48:06.220Z,57.30
2019-05-23T17:50:35.140Z,57.70
2019-05-23T17:53:03.726Z,59.60
2019-05-23T17:55:32.989Z,59.30
2019-05-23T17:58:02.193Z,58.40
2019-05-23T18:00:41.355Z,59.30
2019-05-23T18:03:10.053Z,59.00
2019-05-23T18:05:38.451Z,59.90
2019-05-23T18:08:09.811Z,58.80
